sensor_id;sensor_type;location;lat;lon;timestamp;temperature;humidity
71117;SHT31;58775;46.992;9.518;2023-09-19T00:01:09;14.47;99.47
71117;SHT31;58775;46.992;9.518;2023-09-19T00:03:12;14.45;99.51
71117;SHT31;58775;46.992;9.518;2023-09-19T00:05:13;14.44;99.37
71117;SHT31;58775;46.992;9.518;2023-09-19T00:07:14;14.45;99.29
71117;SHT31;58775;46.992;9.518;2023-09-19T00:09:16;14.38;99.53
71117;SHT31;58775;46.992;9.518;2023-09-19T00:11:17;14.30;99.76
71117;SHT31;58775;46.992;9.518;2023-09-19T00:13:18;14.23;99.99
71117;SHT31;58775;46.992;9.518;2023-09-19T00:15:19;14.17;99.99
71117;SHT31;58775;46.992;9.518;2023-09-19T00:17:21;14.20;99.76
71117;SHT31;58775;46.992;9.518;2023-09-19T00:19:22;14.21;99.20
71117;SHT31;58775;46.992;9.518;2023-09-19T00:21:24;14.25;99.09
71117;SHT31;58775;46.992;9.518;2023-09-19T00:23:25;14.23;99.23
71117;SHT31;58775;46.992;9.518;2023-09-19T00:25:25;14.16;99.75
71117;SHT31;58775;46.992;9.518;2023-09-19T00:27:27;14.18;99.40
71117;SHT31;58775;46.992;9.518;2023-09-19T00:29:29;14.20;99.52
71117;SHT31;58775;46.992;9.518;2023-09-19T00:31:32;14.20;99.45
71117;SHT31;58775;46.992;9.518;2023-09-19T00:33:32;14.09;99.99
71117;SHT31;58775;46.992;9.518;2023-09-19T00:35:34;14.03;99.99
71117;SHT31;58775;46.992;9.518;2023-09-19T00:37:35;14.10;99.99
71117;SHT31;58775;46.992;9.518;2023-09-19T00:39:36;14.12;99.99
71117;SHT31;58775;46.992;9.518;2023-09-19T00:41:37;14.18;99.99
71117;SHT31;58775;46.992;9.518;2023-09-19T00:43:38;14.21;99.99
71117;SHT31;58775;46.992;9.518;2023-09-19T00:45:43;14.25;99.99
71117;SHT31;58775;46.992;9.518;2023-09-19T00:47:50;14.24;99.64
71117;SHT31;58775;46.992;9.518;2023-09-19T00:49:55;14.25;99.85
71117;SHT31;58775;46.992;9.518;2023-09-19T00:51:57;14.20;99.99
71117;SHT31;58775;46.992;9.518;2023-09-19T00:53:59;14.17;99.99
71117;SHT31;58775;46.992;9.518;2023-09-19T00:56:02;14.17;99.99
71117;SHT31;58775;46.992;9.518;2023-09-19T00:58:04;14.23;99.99
71117;SHT31;58775;46.992;9.518;2023-09-19T01:00:09;14.24;99.99
71117;SHT31;58775;46.992;9.518;2023-09-19T01:02:16;14.35;99.99
71117;SHT31;58775;46.992;9.518;2023-09-19T01:04:17;14.34;99.99
71117;SHT31;58775;46.992;9.518;2023-09-19T01:06:18;14.37;99.84
71117;SHT31;58775;46.992;9.518;2023-09-19T01:08:19;14.42;99.80
71117;SHT31;58775;46.992;9.518;2023-09-19T01:10:20;14.38;99.99
71117;SHT31;58775;46.992;9.518;2023-09-19T01:12:29;14.44;99.76
71117;SHT31;58775;46.992;9.518;2023-09-19T01:14:38;14.41;99.99
71117;SHT31;58775;46.992;9.518;2023-09-19T01:21:55;14.41;99.99
71117;SHT31;58775;46.992;9.518;2023-09-19T01:30:27;14.51;99.80
71117;SHT31;58775;46.992;9.518;2023-09-19T01:32:33;14.47;99.99
71117;SHT31;58775;46.992;9.518;2023-09-19T01:36:46;14.48;99.99
71117;SHT31;58775;46.992;9.518;2023-09-19T01:38:47;14.45;99.99
71117;SHT31;58775;46.992;9.518;2023-09-19T01:41:00;14.52;99.92
71117;SHT31;58775;46.992;9.518;2023-09-19T01:45:33;14.47;99.99
71117;SHT31;58775;46.992;9.518;2023-09-19T01:47:43;14.38;99.99
71117;SHT31;58775;46.992;9.518;2023-09-19T01:50:08;14.49;99.99
71117;SHT31;58775;46.992;9.518;2023-09-19T01:52:12;14.52;99.93
71117;SHT31;58775;46.992;9.518;2023-09-19T01:54:31;14.51;99.50
71117;SHT31;58775;46.992;9.518;2023-09-19T01:56:40;14.55;99.45
71117;SHT31;58775;46.992;9.518;2023-09-19T01:58:48;14.49;99.56
71117;SHT31;58775;46.992;9.518;2023-09-19T02:00:50;14.52;99.60
71117;SHT31;58775;46.992;9.518;2023-09-19T02:02:53;14.58;99.05
71117;SHT31;58775;46.992;9.518;2023-09-19T02:04:56;14.49;99.57
71117;SHT31;58775;46.992;9.518;2023-09-19T02:07:01;14.58;99.40
71117;SHT31;58775;46.992;9.518;2023-09-19T02:09:03;14.52;99.44
71117;SHT31;58775;46.992;9.518;2023-09-19T02:11:04;14.47;99.85
71117;SHT31;58775;46.992;9.518;2023-09-19T02:13:06;14.48;99.99
71117;SHT31;58775;46.992;9.518;2023-09-19T02:15:08;14.52;99.73
71117;SHT31;58775;46.992;9.518;2023-09-19T02:17:09;14.60;99.36
71117;SHT31;58775;46.992;9.518;2023-09-19T02:19:13;14.52;99.04
71117;SHT31;58775;46.992;9.518;2023-09-19T02:21:14;14.57;99.73
71117;SHT31;58775;46.992;9.518;2023-09-19T02:23:15;14.55;99.67
71117;SHT31;58775;46.992;9.518;2023-09-19T02:25:16;14.49;99.95
71117;SHT31;58775;46.992;9.518;2023-09-19T02:27:17;14.41;99.99
71117;SHT31;58775;46.992;9.518;2023-09-19T02:29:18;14.45;99.99
71117;SHT31;58775;46.992;9.518;2023-09-19T02:31:19;14.45;99.98
71117;SHT31;58775;46.992;9.518;2023-09-19T02:33:20;14.42;99.99
71117;SHT31;58775;46.992;9.518;2023-09-19T02:35:21;14.38;99.99
71117;SHT31;58775;46.992;9.518;2023-09-19T02:37:21;14.38;99.99
71117;SHT31;58775;46.992;9.518;2023-09-19T02:39:22;14.41;99.99
71117;SHT31;58775;46.992;9.518;2023-09-19T02:41:24;14.40;99.99
71117;SHT31;58775;46.992;9.518;2023-09-19T02:43:24;14.45;99.99
71117;SHT31;58775;46.992;9.518;2023-09-19T02:45:25;14.54;99.99
71117;SHT31;58775;46.992;9.518;2023-09-19T02:47:26;14.51;99.99
71117;SHT31;58775;46.992;9.518;2023-09-19T02:49:29;14.49;99.70
71117;SHT31;58775;46.992;9.518;2023-09-19T02:51:30;14.48;99.99
71117;SHT31;58775;46.992;9.518;2023-09-19T02:53:31;14.51;99.99
71117;SHT31;58775;46.992;9.518;2023-09-19T02:55:32;14.49;99.99
71117;SHT31;58775;46.992;9.518;2023-09-19T02:57:33;14.49;99.98
71117;SHT31;58775;46.992;9.518;2023-09-19T02:59:35;14.47;99.99
71117;SHT31;58775;46.992;9.518;2023-09-19T03:01:37;14.42;99.99
71117;SHT31;58775;46.992;9.518;2023-09-19T03:03:39;14.51;99.99
71117;SHT31;58775;46.992;9.518;2023-09-19T03:05:40;14.58;99.85
71117;SHT31;58775;46.992;9.518;2023-09-19T03:07:41;14.58;99.63
71117;SHT31;58775;46.992;9.518;2023-09-19T03:09:43;14.57;99.54
71117;SHT31;58775;46.992;9.518;2023-09-19T03:11:45;14.45;99.99
71117;SHT31;58775;46.992;9.518;2023-09-19T03:13:53;14.44;99.99
71117;SHT31;58775;46.992;9.518;2023-09-19T03:15:55;14.41;99.99
71117;SHT31;58775;46.992;9.518;2023-09-19T03:18:01;14.37;99.99
71117;SHT31;58775;46.992;9.518;2023-09-19T03:20:03;14.35;99.99
71117;SHT31;58775;46.992;9.518;2023-09-19T03:22:09;14.44;99.99
71117;SHT31;58775;46.992;9.518;2023-09-19T03:24:10;14.51;99.99
71117;SHT31;58775;46.992;9.518;2023-09-19T03:26:13;14.51;99.22
71117;SHT31;58775;46.992;9.518;2023-09-19T03:28:17;14.41;99.57
71117;SHT31;58775;46.992;9.518;2023-09-19T03:30:18;14.35;99.65
71117;SHT31;58775;46.992;9.518;2023-09-19T03:32:19;14.35;99.88
71117;SHT31;58775;46.992;9.518;2023-09-19T03:34:21;14.35;99.56
71117;SHT31;58775;46.992;9.518;2023-09-19T03:36:22;14.30;99.54
71117;SHT31;58775;46.992;9.518;2023-09-19T03:38:23;14.31;99.58
71117;SHT31;58775;46.992;9.518;2023-09-19T03:40:24;14.25;99.56
71117;SHT31;58775;46.992;9.518;2023-09-19T03:42:26;14.21;99.44
71117;SHT31;58775;46.992;9.518;2023-09-19T03:44:28;14.23;99.73
71117;SHT31;58775;46.992;9.518;2023-09-19T03:46:29;14.18;99.40
71117;SHT31;58775;46.992;9.518;2023-09-19T03:48:30;14.03;99.99
71117;SHT31;58775;46.992;9.518;2023-09-19T03:50:31;14.03;99.99
71117;SHT31;58775;46.992;9.518;2023-09-19T03:52:34;14.10;99.99
71117;SHT31;58775;46.992;9.518;2023-09-19T03:54:35;14.13;99.99
71117;SHT31;58775;46.992;9.518;2023-09-19T03:56:36;14.09;99.99
71117;SHT31;58775;46.992;9.518;2023-09-19T03:58:36;14.12;99.99
71117;SHT31;58775;46.992;9.518;2023-09-19T04:00:39;14.09;99.99
71117;SHT31;58775;46.992;9.518;2023-09-19T04:02:40;14.12;99.99
71117;SHT31;58775;46.992;9.518;2023-09-19T04:04:41;14.16;99.99
71117;SHT31;58775;46.992;9.518;2023-09-19T04:06:42;14.17;99.99
71117;SHT31;58775;46.992;9.518;2023-09-19T04:08:44;14.21;99.99
71117;SHT31;58775;46.992;9.518;2023-09-19T04:10:46;14.20;99.99
71117;SHT31;58775;46.992;9.518;2023-09-19T04:12:53;14.23;99.99
71117;SHT31;58775;46.992;9.518;2023-09-19T04:14:54;14.31;99.99
71117;SHT31;58775;46.992;9.518;2023-09-19T04:16:55;14.31;99.99
71117;SHT31;58775;46.992;9.518;2023-09-19T04:18:56;14.34;99.99
71117;SHT31;58775;46.992;9.518;2023-09-19T04:20:56;14.34;99.99
71117;SHT31;58775;46.992;9.518;2023-09-19T04:22:58;14.37;99.99
71117;SHT31;58775;46.992;9.518;2023-09-19T04:25:00;14.38;99.99
71117;SHT31;58775;46.992;9.518;2023-09-19T04:27:01;14.41;99.99
71117;SHT31;58775;46.992;9.518;2023-09-19T04:29:02;14.45;99.99
71117;SHT31;58775;46.992;9.518;2023-09-19T04:31:04;14.49;99.99
71117;SHT31;58775;46.992;9.518;2023-09-19T04:33:05;14.49;99.70
71117;SHT31;58775;46.992;9.518;2023-09-19T04:35:08;14.51;99.70
71117;SHT31;58775;46.992;9.518;2023-09-19T04:37:09;14.47;99.70
71117;SHT31;58775;46.992;9.518;2023-09-19T04:39:09;14.42;99.99
71117;SHT31;58775;46.992;9.518;2023-09-19T04:41:12;14.45;99.99
71117;SHT31;58775;46.992;9.518;2023-09-19T04:43:15;14.54;99.99
71117;SHT31;58775;46.992;9.518;2023-09-19T04:45:16;14.55;99.73
71117;SHT31;58775;46.992;9.518;2023-09-19T04:47:17;14.55;99.66
71117;SHT31;58775;46.992;9.518;2023-09-19T04:49:17;14.42;99.99
71117;SHT31;58775;46.992;9.518;2023-09-19T04:51:19;14.38;99.99
71117;SHT31;58775;46.992;9.518;2023-09-19T04:53:21;14.41;99.75
71117;SHT31;58775;46.992;9.518;2023-09-19T04:55:22;14.47;99.72
71117;SHT31;58775;46.992;9.518;2023-09-19T04:57:23;14.48;99.37
71117;SHT31;58775;46.992;9.518;2023-09-19T04:59:23;14.55;99.84
71117;SHT31;58775;46.992;9.518;2023-09-19T05:01:24;14.47;99.99
71117;SHT31;58775;46.992;9.518;2023-09-19T05:03:25;14.40;99.99
71117;SHT31;58775;46.992;9.518;2023-09-19T05:05:26;14.54;99.99
71117;SHT31;58775;46.992;9.518;2023-09-19T05:07:27;14.51;99.99
71117;SHT31;58775;46.992;9.518;2023-09-19T05:09:27;14.51;99.99
71117;SHT31;58775;46.992;9.518;2023-09-19T05:11:28;14.58;99.64
71117;SHT31;58775;46.992;9.518;2023-09-19T05:13:31;14.51;99.90
71117;SHT31;58775;46.992;9.518;2023-09-19T05:15:31;14.51;99.99
71117;SHT31;58775;46.992;9.518;2023-09-19T05:17:36;14.49;99.99
71117;SHT31;58775;46.992;9.518;2023-09-19T05:19:37;14.48;99.99
71117;SHT31;58775;46.992;9.518;2023-09-19T05:21:39;14.52;99.99
71117;SHT31;58775;46.992;9.518;2023-09-19T05:23:40;14.61;99.99
71117;SHT31;58775;46.992;9.518;2023-09-19T05:25:41;14.65;99.99
71117;SHT31;58775;46.992;9.518;2023-09-19T05:27:43;14.55;99.99
71117;SHT31;58775;46.992;9.518;2023-09-19T05:29:44;14.49;99.99
71117;SHT31;58775;46.992;9.518;2023-09-19T05:31:45;14.55;99.99
71117;SHT31;58775;46.992;9.518;2023-09-19T05:33:46;14.60;99.99
71117;SHT31;58775;46.992;9.518;2023-09-19T05:35:50;14.64;99.99
71117;SHT31;58775;46.992;9.518;2023-09-19T05:37:51;14.55;99.99
71117;SHT31;58775;46.992;9.518;2023-09-19T05:39:52;14.60;99.86
71117;SHT31;58775;46.992;9.518;2023-09-19T05:41:55;14.55;99.99
71117;SHT31;58775;46.992;9.518;2023-09-19T05:43:57;14.54;99.99
71117;SHT31;58775;46.992;9.518;2023-09-19T05:46:00;14.61;99.99
71117;SHT31;58775;46.992;9.518;2023-09-19T05:48:12;14.61;99.99
71117;SHT31;58775;46.992;9.518;2023-09-19T05:50:13;14.58;99.99
71117;SHT31;58775;46.992;9.518;2023-09-19T05:52:15;14.67;99.99
71117;SHT31;58775;46.992;9.518;2023-09-19T05:54:18;14.67;99.99
71117;SHT31;58775;46.992;9.518;2023-09-19T05:56:20;14.72;99.99
71117;SHT31;58775;46.992;9.518;2023-09-19T05:58:21;14.86;99.99
71117;SHT31;58775;46.992;9.518;2023-09-19T06:00:23;15.00;99.69
71117;SHT31;58775;46.992;9.518;2023-09-19T06:02:26;15.03;98.93
71117;SHT31;58775;46.992;9.518;2023-09-19T06:04:30;15.05;98.55
71117;SHT31;58775;46.992;9.518;2023-09-19T06:06:31;15.05;98.58
71117;SHT31;58775;46.992;9.518;2023-09-19T06:08:34;15.06;98.54
71117;SHT31;58775;46.992;9.518;2023-09-19T06:10:35;15.19;98.80
71117;SHT31;58775;46.992;9.518;2023-09-19T06:12:39;15.26;98.10
71117;SHT31;58775;46.992;9.518;2023-09-19T06:14:40;15.22;98.73
71117;SHT31;58775;46.992;9.518;2023-09-19T06:16:41;15.25;98.49
71117;SHT31;58775;46.992;9.518;2023-09-19T06:18:42;15.29;98.20
71117;SHT31;58775;46.992;9.518;2023-09-19T06:20:43;15.26;98.75
71117;SHT31;58775;46.992;9.518;2023-09-19T06:22:45;15.33;98.82
71117;SHT31;58775;46.992;9.518;2023-09-19T06:24:46;15.29;98.41
71117;SHT31;58775;46.992;9.518;2023-09-19T06:26:47;15.26;98.64
71117;SHT31;58775;46.992;9.518;2023-09-19T06:28:49;15.23;98.31
71117;SHT31;58775;46.992;9.518;2023-09-19T06:30:50;15.25;98.29
71117;SHT31;58775;46.992;9.518;2023-09-19T06:32:58;15.64;98.34
71117;SHT31;58775;46.992;9.518;2023-09-19T06:34:59;15.91;95.54
71117;SHT31;58775;46.992;9.518;2023-09-19T06:37:00;16.69;95.09
71117;SHT31;58775;46.992;9.518;2023-09-19T06:39:00;17.31;93.69
71117;SHT31;58775;46.992;9.518;2023-09-19T06:41:02;18.09;92.35
71117;SHT31;58775;46.992;9.518;2023-09-19T06:43:09;18.81;89.48
71117;SHT31;58775;46.992;9.518;2023-09-19T06:45:10;19.75;84.36
71117;SHT31;58775;46.992;9.518;2023-09-19T06:47:18;20.48;82.11
71117;SHT31;58775;46.992;9.518;2023-09-19T06:49:18;21.05;81.34
71117;SHT31;58775;46.992;9.518;2023-09-19T06:51:20;20.96;78.56
71117;SHT31;58775;46.992;9.518;2023-09-19T06:53:20;20.09;82.16
71117;SHT31;58775;46.992;9.518;2023-09-19T06:55:24;20.09;84.19
71117;SHT31;58775;46.992;9.518;2023-09-19T06:57:25;19.51;84.19
71117;SHT31;58775;46.992;9.518;2023-09-19T06:59:26;19.04;84.60
71117;SHT31;58775;46.992;9.518;2023-09-19T07:01:27;18.54;85.88
71117;SHT31;58775;46.992;9.518;2023-09-19T07:03:27;18.56;86.70
71117;SHT31;58775;46.992;9.518;2023-09-19T07:05:32;19.82;82.45
71117;SHT31;58775;46.992;9.518;2023-09-19T07:07:33;18.91;85.27
71117;SHT31;58775;46.992;9.518;2023-09-19T07:09:37;18.22;87.45
71117;SHT31;58775;46.992;9.518;2023-09-19T07:11:38;17.67;88.68
71117;SHT31;58775;46.992;9.518;2023-09-19T07:13:39;17.72;88.55
71117;SHT31;58775;46.992;9.518;2023-09-19T07:15:40;17.96;87.51
71117;SHT31;58775;46.992;9.518;2023-09-19T07:17:46;18.29;86.45
71117;SHT31;58775;46.992;9.518;2023-09-19T07:19:48;18.49;85.90
71117;SHT31;58775;46.992;9.518;2023-09-19T07:21:49;18.08;88.00
71117;SHT31;58775;46.992;9.518;2023-09-19T07:23:51;17.99;87.38
71117;SHT31;58775;46.992;9.518;2023-09-19T07:25:51;17.83;87.53
71117;SHT31;58775;46.992;9.518;2023-09-19T07:27:55;17.88;87.19
71117;SHT31;58775;46.992;9.518;2023-09-19T07:29:55;17.93;86.95
71117;SHT31;58775;46.992;9.518;2023-09-19T07:31:56;17.98;87.22
71117;SHT31;58775;46.992;9.518;2023-09-19T07:33:57;18.02;87.56
71117;SHT31;58775;46.992;9.518;2023-09-19T07:35:58;18.03;86.86
71117;SHT31;58775;46.992;9.518;2023-09-19T07:37:59;18.01;86.88
71117;SHT31;58775;46.992;9.518;2023-09-19T07:40:05;17.91;88.09
71117;SHT31;58775;46.992;9.518;2023-09-19T07:42:07;17.88;88.90
71117;SHT31;58775;46.992;9.518;2023-09-19T07:44:08;18.03;87.54
71117;SHT31;58775;46.992;9.518;2023-09-19T07:46:10;18.09;86.99
71117;SHT31;58775;46.992;9.518;2023-09-19T07:48:12;17.82;87.41
71117;SHT31;58775;46.992;9.518;2023-09-19T07:50:19;17.78;87.70
71117;SHT31;58775;46.992;9.518;2023-09-19T07:52:20;17.95;87.27
71117;SHT31;58775;46.992;9.518;2023-09-19T07:54:23;18.01;86.19
71117;SHT31;58775;46.992;9.518;2023-09-19T07:56:23;18.12;86.81
71117;SHT31;58775;46.992;9.518;2023-09-19T07:58:26;18.19;86.34
71117;SHT31;58775;46.992;9.518;2023-09-19T08:00:27;18.10;87.08
71117;SHT31;58775;46.992;9.518;2023-09-19T08:02:28;18.10;87.39
71117;SHT31;58775;46.992;9.518;2023-09-19T08:04:29;18.34;86.70
71117;SHT31;58775;46.992;9.518;2023-09-19T08:06:31;18.46;85.51
71117;SHT31;58775;46.992;9.518;2023-09-19T08:08:31;18.65;85.47
71117;SHT31;58775;46.992;9.518;2023-09-19T08:10:32;18.91;85.50
71117;SHT31;58775;46.992;9.518;2023-09-19T08:12:35;18.78;84.70
71117;SHT31;58775;46.992;9.518;2023-09-19T08:14:36;18.40;86.60
71117;SHT31;58775;46.992;9.518;2023-09-19T08:16:38;18.53;85.61
71117;SHT31;58775;46.992;9.518;2023-09-19T08:18:39;18.93;84.71
71117;SHT31;58775;46.992;9.518;2023-09-19T08:20:40;19.18;83.82
71117;SHT31;58775;46.992;9.518;2023-09-19T08:22:50;19.31;83.21
71117;SHT31;58775;46.992;9.518;2023-09-19T08:24:53;19.44;82.68
71117;SHT31;58775;46.992;9.518;2023-09-19T08:26:57;19.35;82.73
71117;SHT31;58775;46.992;9.518;2023-09-19T08:28:57;19.35;82.83
71117;SHT31;58775;46.992;9.518;2023-09-19T08:31:06;18.95;84.58
71117;SHT31;58775;46.992;9.518;2023-09-19T08:33:07;18.64;87.19
71117;SHT31;58775;46.992;9.518;2023-09-19T08:35:11;18.43;85.48
71117;SHT31;58775;46.992;9.518;2023-09-19T08:37:12;18.70;86.85
71117;SHT31;58775;46.992;9.518;2023-09-19T08:39:13;18.65;87.18
71117;SHT31;58775;46.992;9.518;2023-09-19T08:41:17;19.14;83.48
71117;SHT31;58775;46.992;9.518;2023-09-19T08:43:21;19.73;81.91
71117;SHT31;58775;46.992;9.518;2023-09-19T08:45:25;20.00;81.46
71117;SHT31;58775;46.992;9.518;2023-09-19T08:47:35;21.06;78.97
71117;SHT31;58775;46.992;9.518;2023-09-19T08:50:33;21.80;76.66
71117;SHT31;58775;46.992;9.518;2023-09-19T08:52:22;21.87;79.51
71117;SHT31;58775;46.992;9.518;2023-09-19T08:54:25;21.81;78.79
71117;SHT31;58775;46.992;9.518;2023-09-19T08:56:31;22.21;73.22
71117;SHT31;58775;46.992;9.518;2023-09-19T08:58:45;22.44;73.49
71117;SHT31;58775;46.992;9.518;2023-09-19T09:00:48;22.76;71.09
71117;SHT31;58775;46.992;9.518;2023-09-19T09:02:51;22.66;71.97
71117;SHT31;58775;46.992;9.518;2023-09-19T09:04:53;22.75;71.54
71117;SHT31;58775;46.992;9.518;2023-09-19T09:06:55;22.89;71.07
71117;SHT31;58775;46.992;9.518;2023-09-19T09:08:57;23.02;72.07
71117;SHT31;58775;46.992;9.518;2023-09-19T09:10:58;23.14;71.87
71117;SHT31;58775;46.992;9.518;2023-09-19T09:13:00;23.26;69.83
71117;SHT31;58775;46.992;9.518;2023-09-19T09:15:01;23.20;70.89
71117;SHT31;58775;46.992;9.518;2023-09-19T09:17:04;22.02;75.44
71117;SHT31;58775;46.992;9.518;2023-09-19T09:19:05;21.42;76.75
71117;SHT31;58775;46.992;9.518;2023-09-19T09:21:06;21.84;75.69
71117;SHT31;58775;46.992;9.518;2023-09-19T09:23:07;22.28;73.76
71117;SHT31;58775;46.992;9.518;2023-09-19T09:25:08;21.90;73.83
71117;SHT31;58775;46.992;9.518;2023-09-19T09:27:12;22.05;73.92
71117;SHT31;58775;46.992;9.518;2023-09-19T09:29:13;21.30;77.18
71117;SHT31;58775;46.992;9.518;2023-09-19T09:31:24;20.98;79.46
71117;SHT31;58775;46.992;9.518;2023-09-19T09:33:25;21.50;76.53
71117;SHT31;58775;46.992;9.518;2023-09-19T09:35:26;20.85;78.96
71117;SHT31;58775;46.992;9.518;2023-09-19T09:37:28;21.10;77.06
71117;SHT31;58775;46.992;9.518;2023-09-19T09:39:31;20.89;77.25
71117;SHT31;58775;46.992;9.518;2023-09-19T09:41:37;21.03;76.83
71117;SHT31;58775;46.992;9.518;2023-09-19T09:43:40;21.30;76.23
71117;SHT31;58775;46.992;9.518;2023-09-19T09:45:42;21.05;76.71
71117;SHT31;58775;46.992;9.518;2023-09-19T09:47:49;20.94;77.04
71117;SHT31;58775;46.992;9.518;2023-09-19T09:49:59;21.08;77.92
71117;SHT31;58775;46.992;9.518;2023-09-19T09:52:07;21.03;77.73
71117;SHT31;58775;46.992;9.518;2023-09-19T09:54:18;21.15;78.13
71117;SHT31;58775;46.992;9.518;2023-09-19T09:56:22;21.57;76.01
71117;SHT31;58775;46.992;9.518;2023-09-19T09:58:23;22.63;73.66
71117;SHT31;58775;46.992;9.518;2023-09-19T10:00:29;23.55;73.28
71117;SHT31;58775;46.992;9.518;2023-09-19T10:02:43;23.61;72.48
71117;SHT31;58775;46.992;9.518;2023-09-19T10:04:46;24.56;67.22
71117;SHT31;58775;46.992;9.518;2023-09-19T10:07:30;24.37;68.05
71117;SHT31;58775;46.992;9.518;2023-09-19T10:09:50;24.32;69.09
71117;SHT31;58775;46.992;9.518;2023-09-19T10:12:08;22.55;71.91
71117;SHT31;58775;46.992;9.518;2023-09-19T10:14:16;22.73;72.12
71117;SHT31;58775;46.992;9.518;2023-09-19T10:16:20;23.33;70.50
71117;SHT31;58775;46.992;9.518;2023-09-19T10:18:27;22.56;71.56
71117;SHT31;58775;46.992;9.518;2023-09-19T10:20:30;23.46;71.65
71117;SHT31;58775;46.992;9.518;2023-09-19T10:22:36;22.53;73.03
71117;SHT31;58775;46.992;9.518;2023-09-19T10:24:39;22.69;73.00
71117;SHT31;58775;46.992;9.518;2023-09-19T10:26:41;22.73;72.75
71117;SHT31;58775;46.992;9.518;2023-09-19T10:28:46;22.73;73.50
71117;SHT31;58775;46.992;9.518;2023-09-19T10:30:51;22.18;72.90
71117;SHT31;58775;46.992;9.518;2023-09-19T10:33:03;21.93;74.15
71117;SHT31;58775;46.992;9.518;2023-09-19T10:35:05;21.50;74.92
71117;SHT31;58775;46.992;9.518;2023-09-19T10:37:08;21.37;75.48
71117;SHT31;58775;46.992;9.518;2023-09-19T10:39:16;20.95;76.69
71117;SHT31;58775;46.992;9.518;2023-09-19T10:41:22;20.89;78.07
71117;SHT31;58775;46.992;9.518;2023-09-19T10:43:27;20.87;75.78
71117;SHT31;58775;46.992;9.518;2023-09-19T10:45:32;21.08;76.97
71117;SHT31;58775;46.992;9.518;2023-09-19T10:47:33;21.03;77.51
71117;SHT31;58775;46.992;9.518;2023-09-19T10:49:35;21.12;76.07
71117;SHT31;58775;46.992;9.518;2023-09-19T10:51:41;21.59;74.82
71117;SHT31;58775;46.992;9.518;2023-09-19T10:54:18;21.23;75.79
71117;SHT31;58775;46.992;9.518;2023-09-19T10:56:31;21.36;75.11
71117;SHT31;58775;46.992;9.518;2023-09-19T10:58:33;21.80;75.10
71117;SHT31;58775;46.992;9.518;2023-09-19T11:00:56;22.04;73.99
71117;SHT31;58775;46.992;9.518;2023-09-19T11:05:13;21.91;72.58
71117;SHT31;58775;46.992;9.518;2023-09-19T11:07:15;22.34;72.69
71117;SHT31;58775;46.992;9.518;2023-09-19T11:09:16;23.04;70.46
71117;SHT31;58775;46.992;9.518;2023-09-19T11:11:44;23.77;68.03
71117;SHT31;58775;46.992;9.518;2023-09-19T11:16:24;24.67;66.85
71117;SHT31;58775;46.992;9.518;2023-09-19T11:20:41;23.92;68.45
71117;SHT31;58775;46.992;9.518;2023-09-19T11:24:50;24.84;66.44
71117;SHT31;58775;46.992;9.518;2023-09-19T11:27:09;25.81;64.90
71117;SHT31;58775;46.992;9.518;2023-09-19T11:29:32;25.35;62.99
71117;SHT31;58775;46.992;9.518;2023-09-19T11:31:43;25.62;63.42
71117;SHT31;58775;46.992;9.518;2023-09-19T11:33:44;26.32;61.47
71117;SHT31;58775;46.992;9.518;2023-09-19T11:38:07;26.85;60.32
71117;SHT31;58775;46.992;9.518;2023-09-19T11:40:09;26.09;63.65
71117;SHT31;58775;46.992;9.518;2023-09-19T11:42:51;25.06;64.90
71117;SHT31;58775;46.992;9.518;2023-09-19T11:44:54;25.69;61.52
71117;SHT31;58775;46.992;9.518;2023-09-19T11:46:56;25.96;61.71
71117;SHT31;58775;46.992;9.518;2023-09-19T11:49:07;26.64;59.80
71117;SHT31;58775;46.992;9.518;2023-09-19T11:51:17;25.42;63.66
71117;SHT31;58775;46.992;9.518;2023-09-19T11:53:37;26.17;61.96
71117;SHT31;58775;46.992;9.518;2023-09-19T11:55:40;26.61;62.11
71117;SHT31;58775;46.992;9.518;2023-09-19T11:57:43;26.13;60.36
71117;SHT31;58775;46.992;9.518;2023-09-19T11:59:45;26.48;59.44
71117;SHT31;58775;46.992;9.518;2023-09-19T12:01:52;26.09;61.37
71117;SHT31;58775;46.992;9.518;2023-09-19T12:04:01;25.54;64.04
71117;SHT31;58775;46.992;9.518;2023-09-19T12:06:10;24.93;65.46
71117;SHT31;58775;46.992;9.518;2023-09-19T12:08:15;25.08;64.68
71117;SHT31;58775;46.992;9.518;2023-09-19T12:10:17;24.73;67.79
71117;SHT31;58775;46.992;9.518;2023-09-19T12:12:22;24.70;68.14
71117;SHT31;58775;46.992;9.518;2023-09-19T12:14:24;24.33;68.16
71117;SHT31;58775;46.992;9.518;2023-09-19T12:16:26;23.57;71.11
71117;SHT31;58775;46.992;9.518;2023-09-19T12:18:31;24.09;69.21
71117;SHT31;58775;46.992;9.518;2023-09-19T12:20:43;24.88;67.55
71117;SHT31;58775;46.992;9.518;2023-09-19T12:22:47;25.15;65.98
71117;SHT31;58775;46.992;9.518;2023-09-19T12:24:50;24.88;65.33
71117;SHT31;58775;46.992;9.518;2023-09-19T12:26:51;24.56;66.58
71117;SHT31;58775;46.992;9.518;2023-09-19T12:28:53;25.03;66.38
71117;SHT31;58775;46.992;9.518;2023-09-19T12:30:55;24.77;70.53
71117;SHT31;58775;46.992;9.518;2023-09-19T12:32:56;24.16;70.14
71117;SHT31;58775;46.992;9.518;2023-09-19T12:34:59;24.37;67.83
71117;SHT31;58775;46.992;9.518;2023-09-19T12:37:18;23.98;70.48
71117;SHT31;58775;46.992;9.518;2023-09-19T12:39:30;24.02;69.11
71117;SHT31;58775;46.992;9.518;2023-09-19T12:41:31;23.36;73.07
71117;SHT31;58775;46.992;9.518;2023-09-19T12:43:33;23.24;68.93
71117;SHT31;58775;46.992;9.518;2023-09-19T12:45:35;22.41;73.36
71117;SHT31;58775;46.992;9.518;2023-09-19T12:47:37;22.42;73.40
71117;SHT31;58775;46.992;9.518;2023-09-19T12:50:05;22.28;74.35
71117;SHT31;58775;46.992;9.518;2023-09-19T12:52:06;22.10;75.36
71117;SHT31;58775;46.992;9.518;2023-09-19T12:54:10;22.42;76.55
71117;SHT31;58775;46.992;9.518;2023-09-19T12:56:16;22.59;74.92
71117;SHT31;58775;46.992;9.518;2023-09-19T12:58:17;22.77;74.56
71117;SHT31;58775;46.992;9.518;2023-09-19T13:00:19;22.90;74.57
71117;SHT31;58775;46.992;9.518;2023-09-19T13:02:24;22.85;69.13
71117;SHT31;58775;46.992;9.518;2023-09-19T13:04:26;22.90;71.70
71117;SHT31;58775;46.992;9.518;2023-09-19T13:06:37;22.69;73.11
71117;SHT31;58775;46.992;9.518;2023-09-19T13:08:43;22.68;75.34
71117;SHT31;58775;46.992;9.518;2023-09-19T13:13:24;22.28;73.71
71117;SHT31;58775;46.992;9.518;2023-09-19T13:15:28;21.93;75.73
71117;SHT31;58775;46.992;9.518;2023-09-19T13:17:45;22.35;74.85
71117;SHT31;58775;46.992;9.518;2023-09-19T13:19:49;22.45;74.15
71117;SHT31;58775;46.992;9.518;2023-09-19T13:21:54;22.69;73.65
71117;SHT31;58775;46.992;9.518;2023-09-19T13:24:22;23.04;73.68
71117;SHT31;58775;46.992;9.518;2023-09-19T13:26:23;22.98;72.97
71117;SHT31;58775;46.992;9.518;2023-09-19T13:28:24;22.63;73.70
71117;SHT31;58775;46.992;9.518;2023-09-19T13:30:26;22.55;75.31
71117;SHT31;58775;46.992;9.518;2023-09-19T13:32:29;23.77;68.89